sensor_id;sensor_type;location;lat;lon;timestamp;P1;durP1;ratioP1;P2;durP2;ratioP2
25331;SDS011;13284;52.748;13.452;2023-01-08T00:00:46;3.93;;;3.53;;
25331;SDS011;13284;52.748;13.452;2023-01-08T00:03:11;4.23;;;3.77;;
25331;SDS011;13284;52.748;13.452;2023-01-08T00:05:37;6.07;;;4.10;;
25331;SDS011;13284;52.748;13.452;2023-01-08T00:08:03;5.00;;;4.40;;
25331;SDS011;13284;52.748;13.452;2023-01-08T00:10:29;5.30;;;4.37;;
25331;SDS011;13284;52.748;13.452;2023-01-08T00:12:55;7.27;;;4.57;;
25331;SDS011;13284;52.748;13.452;2023-01-08T00:15:20;4.33;;;3.83;;
25331;SDS011;13284;52.748;13.452;2023-01-08T00:17:46;4.37;;;3.97;;
25331;SDS011;13284;52.748;13.452;2023-01-08T00:20:11;4.67;;;4.07;;
25331;SDS011;13284;52.748;13.452;2023-01-08T00:22:37;4.80;;;3.90;;
25331;SDS011;13284;52.748;13.452;2023-01-08T00:25:03;5.60;;;4.43;;
25331;SDS011;13284;52.748;13.452;2023-01-08T00:27:29;6.27;;;4.10;;
25331;SDS011;13284;52.748;13.452;2023-01-08T00:29:54;4.63;;;4.23;;
25331;SDS011;13284;52.748;13.452;2023-01-08T00:32:20;4.20;;;3.80;;
25331;SDS011;13284;52.748;13.452;2023-01-08T00:34:45;3.70;;;3.37;;
25331;SDS011;13284;52.748;13.452;2023-01-08T00:37:12;4.73;;;3.70;;
25331;SDS011;13284;52.748;13.452;2023-01-08T00:39:37;4.10;;;3.70;;
25331;SDS011;13284;52.748;13.452;2023-01-08T00:42:03;6.40;;;4.10;;
25331;SDS011;13284;52.748;13.452;2023-01-08T00:44:28;4.60;;;4.10;;
25331;SDS011;13284;52.748;13.452;2023-01-08T00:46:54;4.80;;;3.90;;
25331;SDS011;13284;52.748;13.452;2023-01-08T00:49:19;4.00;;;3.50;;
25331;SDS011;13284;52.748;13.452;2023-01-08T00:51:45;5.40;;;4.53;;
25331;SDS011;13284;52.748;13.452;2023-01-08T00:54:10;3.97;;;3.57;;
25331;SDS011;13284;52.748;13.452;2023-01-08T00:56:36;5.77;;;3.77;;
25331;SDS011;13284;52.748;13.452;2023-01-08T00:59:01;4.83;;;4.07;;
25331;SDS011;13284;52.748;13.452;2023-01-08T01:01:27;4.93;;;4.40;;
25331;SDS011;13284;52.748;13.452;2023-01-08T01:03:52;4.90;;;4.03;;
25331;SDS011;13284;52.748;13.452;2023-01-08T01:06:18;4.70;;;4.17;;
25331;SDS011;13284;52.748;13.452;2023-01-08T01:08:43;4.07;;;3.67;;
25331;SDS011;13284;52.748;13.452;2023-01-08T01:11:10;4.50;;;4.10;;
25331;SDS011;13284;52.748;13.452;2023-01-08T01:13:41;4.60;;;4.20;;
25331;SDS011;13284;52.748;13.452;2023-01-08T01:16:07;4.30;;;3.90;;
25331;SDS011;13284;52.748;13.452;2023-01-08T01:18:33;4.80;;;4.27;;
25331;SDS011;13284;52.748;13.452;2023-01-08T01:20:58;5.80;;;5.20;;
25331;SDS011;13284;52.748;13.452;2023-01-08T01:23:24;5.23;;;4.13;;
25331;SDS011;13284;52.748;13.452;2023-01-08T01:25:49;5.40;;;3.53;;
25331;SDS011;13284;52.748;13.452;2023-01-08T01:28:15;4.87;;;4.33;;
25331;SDS011;13284;52.748;13.452;2023-01-08T01:30:41;5.10;;;4.60;;
25331;SDS011;13284;52.748;13.452;2023-01-08T01:33:06;6.27;;;4.20;;
25331;SDS011;13284;52.748;13.452;2023-01-08T01:35:32;5.37;;;4.50;;
25331;SDS011;13284;52.748;13.452;2023-01-08T01:37:57;5.50;;;4.67;;
25331;SDS011;13284;52.748;13.452;2023-01-08T01:40:22;5.13;;;4.40;;
25331;SDS011;13284;52.748;13.452;2023-01-08T01:42:48;6.97;;;4.83;;
25331;SDS011;13284;52.748;13.452;2023-01-08T01:47:56;4.97;;;4.53;;
25331;SDS011;13284;52.748;13.452;2023-01-08T01:50:27;5.30;;;4.23;;
25331;SDS011;13284;52.748;13.452;2023-01-08T01:52:59;5.80;;;4.73;;
25331;SDS011;13284;52.748;13.452;2023-01-08T01:55:31;5.70;;;4.10;;
25331;SDS011;13284;52.748;13.452;2023-01-08T01:58:05;5.30;;;4.77;;
25331;SDS011;13284;52.748;13.452;2023-01-08T02:00:37;5.30;;;4.90;;
25331;SDS011;13284;52.748;13.452;2023-01-08T02:03:03;5.20;;;4.40;;
25331;SDS011;13284;52.748;13.452;2023-01-08T02:05:32;5.00;;;4.50;;
25331;SDS011;13284;52.748;13.452;2023-01-08T02:08:11;4.87;;;4.03;;
25331;SDS011;13284;52.748;13.452;2023-01-08T02:10:46;8.43;;;5.33;;
25331;SDS011;13284;52.748;13.452;2023-01-08T02:13:19;5.80;;;4.50;;
25331;SDS011;13284;52.748;13.452;2023-01-08T02:21:32;5.40;;;4.90;;
25331;SDS011;13284;52.748;13.452;2023-01-08T02:24:19;6.17;;;4.93;;
25331;SDS011;13284;52.748;13.452;2023-01-08T02:26:54;6.83;;;5.03;;
25331;SDS011;13284;52.748;13.452;2023-01-08T02:29:23;5.87;;;5.00;;
25331;SDS011;13284;52.748;13.452;2023-01-08T02:31:52;6.27;;;5.40;;
25331;SDS011;13284;52.748;13.452;2023-01-08T02:34:19;5.67;;;5.07;;
25331;SDS011;13284;52.748;13.452;2023-01-08T02:36:46;6.07;;;5.47;;
25331;SDS011;13284;52.748;13.452;2023-01-08T02:42:10;5.43;;;4.93;;
25331;SDS011;13284;52.748;13.452;2023-01-08T02:45:00;5.73;;;5.17;;
25331;SDS011;13284;52.748;13.452;2023-01-08T02:47:44;5.77;;;5.03;;
25331;SDS011;13284;52.748;13.452;2023-01-08T02:53:17;5.53;;;4.93;;
25331;SDS011;13284;52.748;13.452;2023-01-08T02:58:51;5.40;;;4.90;;
25331;SDS011;13284;52.748;13.452;2023-01-08T03:01:18;5.67;;;4.13;;
25331;SDS011;13284;52.748;13.452;2023-01-08T03:03:48;5.43;;;4.93;;
25331;SDS011;13284;52.748;13.452;2023-01-08T03:06:18;6.63;;;5.50;;
25331;SDS011;13284;52.748;13.452;2023-01-08T03:08:45;7.23;;;5.37;;
25331;SDS011;13284;52.748;13.452;2023-01-08T03:11:14;7.63;;;5.40;;
25331;SDS011;13284;52.748;13.452;2023-01-08T03:13:45;5.70;;;5.10;;
25331;SDS011;13284;52.748;13.452;2023-01-08T03:16:37;8.23;;;5.97;;
25331;SDS011;13284;52.748;13.452;2023-01-08T03:19:07;8.90;;;5.57;;
25331;SDS011;13284;52.748;13.452;2023-01-08T03:21:37;6.37;;;5.50;;
25331;SDS011;13284;52.748;13.452;2023-01-08T03:24:04;7.40;;;5.03;;
25331;SDS011;13284;52.748;13.452;2023-01-08T03:26:32;6.17;;;5.57;;
25331;SDS011;13284;52.748;13.452;2023-01-08T03:29:02;5.93;;;5.33;;
25331;SDS011;13284;52.748;13.452;2023-01-08T03:31:29;7.87;;;5.97;;
25331;SDS011;13284;52.748;13.452;2023-01-08T03:33:58;6.13;;;5.47;;
25331;SDS011;13284;52.748;13.452;2023-01-08T03:36:25;8.30;;;5.90;;
25331;SDS011;13284;52.748;13.452;2023-01-08T03:38:55;8.13;;;6.00;;
25331;SDS011;13284;52.748;13.452;2023-01-08T03:41:26;7.67;;;6.00;;
25331;SDS011;13284;52.748;13.452;2023-01-08T03:43:55;10.87;;;5.83;;
25331;SDS011;13284;52.748;13.452;2023-01-08T03:46:28;8.03;;;6.43;;
25331;SDS011;13284;52.748;13.452;2023-01-08T03:48:57;6.90;;;6.23;;
25331;SDS011;13284;52.748;13.452;2023-01-08T03:51:24;5.60;;;5.00;;
25331;SDS011;13284;52.748;13.452;2023-01-08T03:53:51;8.27;;;6.40;;
25331;SDS011;13284;52.748;13.452;2023-01-08T03:56:20;8.30;;;6.70;;
25331;SDS011;13284;52.748;13.452;2023-01-08T03:58:46;6.97;;;5.67;;
25331;SDS011;13284;52.748;13.452;2023-01-08T04:01:11;6.50;;;5.83;;
25331;SDS011;13284;52.748;13.452;2023-01-08T04:03:37;9.27;;;6.23;;
25331;SDS011;13284;52.748;13.452;2023-01-08T04:06:02;5.77;;;5.17;;
25331;SDS011;13284;52.748;13.452;2023-01-08T04:08:28;6.17;;;5.57;;
25331;SDS011;13284;52.748;13.452;2023-01-08T04:10:53;7.47;;;6.67;;
25331;SDS011;13284;52.748;13.452;2023-01-08T04:13:19;7.00;;;5.77;;
25331;SDS011;13284;52.748;13.452;2023-01-08T04:15:47;8.50;;;6.43;;
25331;SDS011;13284;52.748;13.452;2023-01-08T04:18:16;6.90;;;6.20;;
25331;SDS011;13284;52.748;13.452;2023-01-08T04:20:48;6.70;;;6.00;;
25331;SDS011;13284;52.748;13.452;2023-01-08T04:23:14;9.37;;;6.20;;
25331;SDS011;13284;52.748;13.452;2023-01-08T04:25:40;7.00;;;6.30;;
25331;SDS011;13284;52.748;13.452;2023-01-08T04:28:05;7.37;;;6.17;;
25331;SDS011;13284;52.748;13.452;2023-01-08T04:30:31;7.03;;;6.33;;
25331;SDS011;13284;52.748;13.452;2023-01-08T04:32:56;7.10;;;5.10;;
25331;SDS011;13284;52.748;13.452;2023-01-08T04:35:22;7.63;;;6.87;;
25331;SDS011;13284;52.748;13.452;2023-01-08T04:37:47;7.67;;;5.87;;
25331;SDS011;13284;52.748;13.452;2023-01-08T04:40:13;6.87;;;5.97;;
25331;SDS011;13284;52.748;13.452;2023-01-08T04:42:39;7.33;;;5.80;;
25331;SDS011;13284;52.748;13.452;2023-01-08T04:45:05;7.77;;;6.43;;
25331;SDS011;13284;52.748;13.452;2023-01-08T04:47:31;9.00;;;5.70;;
25331;SDS011;13284;52.748;13.452;2023-01-08T04:49:57;6.70;;;6.00;;
25331;SDS011;13284;52.748;13.452;2023-01-08T04:52:22;11.73;;;6.20;;
25331;SDS011;13284;52.748;13.452;2023-01-08T04:54:48;8.63;;;6.37;;
25331;SDS011;13284;52.748;13.452;2023-01-08T04:57:13;6.30;;;5.60;;
25331;SDS011;13284;52.748;13.452;2023-01-08T04:59:39;8.33;;;6.80;;
25331;SDS011;13284;52.748;13.452;2023-01-08T05:02:04;8.03;;;6.43;;
25331;SDS011;13284;52.748;13.452;2023-01-08T05:04:30;8.90;;;7.63;;
25331;SDS011;13284;52.748;13.452;2023-01-08T05:06:55;8.43;;;7.17;;
25331;SDS011;13284;52.748;13.452;2023-01-08T05:09:21;9.93;;;7.43;;
25331;SDS011;13284;52.748;13.452;2023-01-08T05:11:46;7.53;;;6.10;;
25331;SDS011;13284;52.748;13.452;2023-01-08T05:14:12;8.87;;;6.20;;
25331;SDS011;13284;52.748;13.452;2023-01-08T05:16:37;9.27;;;6.33;;
25331;SDS011;13284;52.748;13.452;2023-01-08T05:19:03;7.57;;;5.90;;
25331;SDS011;13284;52.748;13.452;2023-01-08T05:21:28;8.30;;;5.93;;
25331;SDS011;13284;52.748;13.452;2023-01-08T05:23:54;7.17;;;5.93;;
25331;SDS011;13284;52.748;13.452;2023-01-08T05:26:19;8.27;;;6.33;;
25331;SDS011;13284;52.748;13.452;2023-01-08T05:28:45;7.30;;;5.97;;
25331;SDS011;13284;52.748;13.452;2023-01-08T05:31:11;6.43;;;5.80;;
25331;SDS011;13284;52.748;13.452;2023-01-08T05:33:37;9.23;;;6.70;;
25331;SDS011;13284;52.748;13.452;2023-01-08T05:36:03;14.00;;;6.20;;
25331;SDS011;13284;52.748;13.452;2023-01-08T05:38:30;9.03;;;6.33;;
25331;SDS011;13284;52.748;13.452;2023-01-08T05:40:55;7.67;;;6.60;;
25331;SDS011;13284;52.748;13.452;2023-01-08T05:43:21;17.53;;;13.20;;
25331;SDS011;13284;52.748;13.452;2023-01-08T05:45:46;7.97;;;6.20;;
25331;SDS011;13284;52.748;13.452;2023-01-08T05:48:12;6.90;;;6.03;;
25331;SDS011;13284;52.748;13.452;2023-01-08T05:50:37;7.63;;;6.40;;
25331;SDS011;13284;52.748;13.452;2023-01-08T05:53:06;8.77;;;6.57;;
25331;SDS011;13284;52.748;13.452;2023-01-08T05:55:33;7.33;;;5.90;;
25331;SDS011;13284;52.748;13.452;2023-01-08T05:58:02;9.30;;;6.40;;
25331;SDS011;13284;52.748;13.452;2023-01-08T06:00:28;7.17;;;6.27;;
25331;SDS011;13284;52.748;13.452;2023-01-08T06:02:54;6.37;;;5.77;;
25331;SDS011;13284;52.748;13.452;2023-01-08T06:05:20;8.20;;;5.87;;
25331;SDS011;13284;52.748;13.452;2023-01-08T06:07:45;8.37;;;5.97;;
25331;SDS011;13284;52.748;13.452;2023-01-08T06:10:11;6.90;;;5.70;;
25331;SDS011;13284;52.748;13.452;2023-01-08T06:12:36;8.33;;;6.30;;
25331;SDS011;13284;52.748;13.452;2023-01-08T06:15:02;6.27;;;5.67;;
25331;SDS011;13284;52.748;13.452;2023-01-08T06:17:29;11.73;;;8.77;;
25331;SDS011;13284;52.748;13.452;2023-01-08T06:19:55;13.27;;;8.80;;
25331;SDS011;13284;52.748;13.452;2023-01-08T06:22:21;7.37;;;5.60;;
25331;SDS011;13284;52.748;13.452;2023-01-08T06:24:46;6.53;;;5.70;;
25331;SDS011;13284;52.748;13.452;2023-01-08T06:27:12;7.20;;;5.67;;
25331;SDS011;13284;52.748;13.452;2023-01-08T06:29:37;7.60;;;5.93;;
25331;SDS011;13284;52.748;13.452;2023-01-08T06:32:03;9.37;;;6.40;;
25331;SDS011;13284;52.748;13.452;2023-01-08T06:34:28;7.37;;;6.43;;
25331;SDS011;13284;52.748;13.452;2023-01-08T06:36:54;8.07;;;6.10;;
25331;SDS011;13284;52.748;13.452;2023-01-08T06:39:19;9.57;;;6.53;;
25331;SDS011;13284;52.748;13.452;2023-01-08T06:41:45;7.83;;;6.23;;
25331;SDS011;13284;52.748;13.452;2023-01-08T06:44:10;7.17;;;5.90;;
25331;SDS011;13284;52.748;13.452;2023-01-08T06:46:36;9.13;;;7.47;;
25331;SDS011;13284;52.748;13.452;2023-01-08T06:49:04;8.30;;;6.43;;
25331;SDS011;13284;52.748;13.452;2023-01-08T06:51:30;7.17;;;5.37;;
25331;SDS011;13284;52.748;13.452;2023-01-08T06:53:56;7.47;;;6.13;;
25331;SDS011;13284;52.748;13.452;2023-01-08T06:56:21;7.50;;;6.10;;
25331;SDS011;13284;52.748;13.452;2023-01-08T06:58:47;6.67;;;5.73;;
25331;SDS011;13284;52.748;13.452;2023-01-08T07:01:13;8.17;;;6.40;;
25331;SDS011;13284;52.748;13.452;2023-01-08T07:03:39;7.07;;;5.77;;
25331;SDS011;13284;52.748;13.452;2023-01-08T07:06:05;8.20;;;6.30;;
25331;SDS011;13284;52.748;13.452;2023-01-08T07:08:31;8.27;;;6.60;;
25331;SDS011;13284;52.748;13.452;2023-01-08T07:11:00;8.40;;;6.60;;
25331;SDS011;13284;52.748;13.452;2023-01-08T07:13:27;10.37;;;7.50;;
25331;SDS011;13284;52.748;13.452;2023-01-08T07:15:53;6.93;;;6.23;;
25331;SDS011;13284;52.748;13.452;2023-01-08T07:18:20;9.13;;;6.60;;
25331;SDS011;13284;52.748;13.452;2023-01-08T07:20:46;8.63;;;6.47;;
25331;SDS011;13284;52.748;13.452;2023-01-08T07:23:13;7.50;;;5.77;;
25331;SDS011;13284;52.748;13.452;2023-01-08T07:25:38;7.60;;;6.20;;
25331;SDS011;13284;52.748;13.452;2023-01-08T07:28:04;6.73;;;6.00;;
25331;SDS011;13284;52.748;13.452;2023-01-08T07:30:33;8.23;;;6.47;;
25331;SDS011;13284;52.748;13.452;2023-01-08T07:32:59;8.83;;;6.37;;
25331;SDS011;13284;52.748;13.452;2023-01-08T07:35:25;7.03;;;6.10;;
25331;SDS011;13284;52.748;13.452;2023-01-08T07:37:51;10.13;;;5.67;;
25331;SDS011;13284;52.748;13.452;2023-01-08T07:40:16;7.57;;;5.87;;
25331;SDS011;13284;52.748;13.452;2023-01-08T07:42:42;6.93;;;5.43;;
25331;SDS011;13284;52.748;13.452;2023-01-08T07:45:07;6.40;;;5.70;;
25331;SDS011;13284;52.748;13.452;2023-01-08T07:47:33;7.70;;;5.43;;
25331;SDS011;13284;52.748;13.452;2023-01-08T07:49:58;7.43;;;6.30;;
25331;SDS011;13284;52.748;13.452;2023-01-08T07:52:24;5.97;;;5.37;;
25331;SDS011;13284;52.748;13.452;2023-01-08T07:54:49;6.70;;;6.00;;
25331;SDS011;13284;52.748;13.452;2023-01-08T07:57:15;6.07;;;5.17;;
25331;SDS011;13284;52.748;13.452;2023-01-08T07:59:40;9.00;;;5.83;;
25331;SDS011;13284;52.748;13.452;2023-01-08T08:02:06;7.00;;;5.43;;
25331;SDS011;13284;52.748;13.452;2023-01-08T08:04:31;6.53;;;5.93;;
25331;SDS011;13284;52.748;13.452;2023-01-08T08:06:57;7.33;;;5.90;;
25331;SDS011;13284;52.748;13.452;2023-01-08T08:09:23;6.73;;;5.87;;
25331;SDS011;13284;52.748;13.452;2023-01-08T08:11:48;6.53;;;5.77;;
25331;SDS011;13284;52.748;13.452;2023-01-08T08:14:14;6.13;;;5.53;;
25331;SDS011;13284;52.748;13.452;2023-01-08T08:16:39;8.80;;;5.87;;
25331;SDS011;13284;52.748;13.452;2023-01-08T08:19:05;7.10;;;5.60;;
25331;SDS011;13284;52.748;13.452;2023-01-08T08:21:30;6.67;;;6.07;;
25331;SDS011;13284;52.748;13.452;2023-01-08T08:23:56;7.10;;;5.87;;
25331;SDS011;13284;52.748;13.452;2023-01-08T08:26:21;7.90;;;5.30;;
25331;SDS011;13284;52.748;13.452;2023-01-08T08:28:47;6.90;;;5.13;;
25331;SDS011;13284;52.748;13.452;2023-01-08T08:31:13;6.30;;;5.70;;
25331;SDS011;13284;52.748;13.452;2023-01-08T08:33:38;8.20;;;5.80;;
25331;SDS011;13284;52.748;13.452;2023-01-08T08:36:04;6.07;;;5.47;;
25331;SDS011;13284;52.748;13.452;2023-01-08T08:38:29;6.70;;;5.67;;
25331;SDS011;13284;52.748;13.452;2023-01-08T08:40:55;7.07;;;6.03;;
25331;SDS011;13284;52.748;13.452;2023-01-08T08:43:20;7.60;;;5.90;;
25331;SDS011;13284;52.748;13.452;2023-01-08T08:45:46;8.70;;;5.87;;
25331;SDS011;13284;52.748;13.452;2023-01-08T08:48:11;7.27;;;6.07;;
25331;SDS011;13284;52.748;13.452;2023-01-08T08:50:37;9.47;;;5.67;;
25331;SDS011;13284;52.748;13.452;2023-01-08T08:53:04;7.83;;;5.93;;
25331;SDS011;13284;52.748;13.452;2023-01-08T08:55:30;7.27;;;5.97;;
25331;SDS011;13284;52.748;13.452;2023-01-08T08:58:03;7.03;;;6.00;;
25331;SDS011;13284;52.748;13.452;2023-01-08T09:00:30;8.30;;;6.20;;
25331;SDS011;13284;52.748;13.452;2023-01-08T09:02:56;7.53;;;5.73;;
25331;SDS011;13284;52.748;13.452;2023-01-08T09:05:21;7.50;;;6.27;;
25331;SDS011;13284;52.748;13.452;2023-01-08T09:07:47;6.27;;;4.97;;
25331;SDS011;13284;52.748;13.452;2023-01-08T09:10:12;8.50;;;7.00;;
25331;SDS011;13284;52.748;13.452;2023-01-08T09:12:37;7.37;;;6.60;;
25331;SDS011;13284;52.748;13.452;2023-01-08T09:15:03;6.83;;;6.07;;
25331;SDS011;13284;52.748;13.452;2023-01-08T09:17:29;8.77;;;7.03;;
25331;SDS011;13284;52.748;13.452;2023-01-08T09:19:54;8.67;;;6.87;;
25331;SDS011;13284;52.748;13.452;2023-01-08T09:22:20;7.50;;;6.17;;
25331;SDS011;13284;52.748;13.452;2023-01-08T09:24:45;7.60;;;5.80;;
25331;SDS011;13284;52.748;13.452;2023-01-08T09:27:11;7.90;;;5.77;;
25331;SDS011;13284;52.748;13.452;2023-01-08T09:29:37;7.80;;;5.90;;
25331;SDS011;13284;52.748;13.452;2023-01-08T09:32:06;8.07;;;5.37;;
25331;SDS011;13284;52.748;13.452;2023-01-08T09:34:32;8.07;;;7.27;;
25331;SDS011;13284;52.748;13.452;2023-01-08T09:37:00;9.27;;;5.80;;
25331;SDS011;13284;52.748;13.452;2023-01-08T09:39:26;8.33;;;5.83;;
25331;SDS011;13284;52.748;13.452;2023-01-08T09:41:51;6.00;;;5.37;;
25331;SDS011;13284;52.748;13.452;2023-01-08T09:44:21;6.53;;;5.40;;
25331;SDS011;13284;52.748;13.452;2023-01-08T09:46:50;16.10;;;6.97;;
25331;SDS011;13284;52.748;13.452;2023-01-08T09:49:20;5.93;;;5.10;;
25331;SDS011;13284;52.748;13.452;2023-01-08T09:51:50;7.70;;;5.90;;
25331;SDS011;13284;52.748;13.452;2023-01-08T09:54:16;7.43;;;6.00;;
25331;SDS011;13284;52.748;13.452;2023-01-08T09:56:42;7.97;;;5.67;;
25331;SDS011;13284;52.748;13.452;2023-01-08T09:59:09;6.57;;;5.60;;
25331;SDS011;13284;52.748;13.452;2023-01-08T10:01:38;6.13;;;5.40;;
25331;SDS011;13284;52.748;13.452;2023-01-08T10:06:37;7.17;;;6.00;;
25331;SDS011;13284;52.748;13.452;2023-01-08T10:09:04;8.10;;;6.37;;
25331;SDS011;13284;52.748;13.452;2023-01-08T10:11:33;8.40;;;5.63;;
25331;SDS011;13284;52.748;13.452;2023-01-08T10:14:07;7.43;;;5.80;;
25331;SDS011;13284;52.748;13.452;2023-01-08T10:16:45;6.50;;;5.50;;
25331;SDS011;13284;52.748;13.452;2023-01-08T10:19:12;6.30;;;5.43;;
25331;SDS011;13284;52.748;13.452;2023-01-08T10:21:38;10.33;;;6.30;;
25331;SDS011;13284;52.748;13.452;2023-01-08T10:24:05;8.77;;;6.10;;
25331;SDS011;13284;52.748;13.452;2023-01-08T10:26:32;7.67;;;6.60;;
25331;SDS011;13284;52.748;13.452;2023-01-08T10:29:06;7.80;;;6.10;;
25331;SDS011;13284;52.748;13.452;2023-01-08T10:31:44;7.70;;;5.70;;
25331;SDS011;13284;52.748;13.452;2023-01-08T10:34:10;7.70;;;5.83;;
25331;SDS011;13284;52.748;13.452;2023-01-08T10:36:42;6.57;;;5.40;;
25331;SDS011;13284;52.748;13.452;2023-01-08T10:39:12;7.40;;;6.13;;
25331;SDS011;13284;52.748;13.452;2023-01-08T10:41:46;7.87;;;6.27;;
25331;SDS011;13284;52.748;13.452;2023-01-08T10:44:14;7.00;;;6.30;;
25331;SDS011;13284;52.748;13.452;2023-01-08T10:46:42;7.63;;;6.57;;
25331;SDS011;13284;52.748;13.452;2023-01-08T10:49:15;8.70;;;6.33;;
25331;SDS011;13284;52.748;13.452;2023-01-08T10:51:48;6.80;;;5.60;;
25331;SDS011;13284;52.748;13.452;2023-01-08T10:54:30;7.50;;;5.60;;
25331;SDS011;13284;52.748;13.452;2023-01-08T10:57:01;8.17;;;6.00;;
25331;SDS011;13284;52.748;13.452;2023-01-08T10:59:26;6.30;;;5.10;;
25331;SDS011;13284;52.748;13.452;2023-01-08T11:01:55;5.73;;;5.10;;
25331;SDS011;13284;52.748;13.452;2023-01-08T11:04:27;9.00;;;6.47;;
25331;SDS011;13284;52.748;13.452;2023-01-08T11:07:02;5.80;;;4.80;;
25331;SDS011;13284;52.748;13.452;2023-01-08T11:09:31;9.10;;;5.60;;
25331;SDS011;13284;52.748;13.452;2023-01-08T11:11:58;7.13;;;5.83;;
25331;SDS011;13284;52.748;13.452;2023-01-08T11:14:26;6.63;;;5.97;;
25331;SDS011;13284;52.748;13.452;2023-01-08T11:16:52;6.40;;;5.23;;
25331;SDS011;13284;52.748;13.452;2023-01-08T11:19:28;6.30;;;5.17;;
25331;SDS011;13284;52.748;13.452;2023-01-08T11:21:59;6.13;;;5.07;;
25331;SDS011;13284;52.748;13.452;2023-01-08T11:24:36;6.50;;;4.73;;
25331;SDS011;13284;52.748;13.452;2023-01-08T11:27:07;6.23;;;5.47;;
25331;SDS011;13284;52.748;13.452;2023-01-08T11:29:44;5.63;;;4.80;;
25331;SDS011;13284;52.748;13.452;2023-01-08T11:37:23;6.80;;;5.40;;
25331;SDS011;13284;52.748;13.452;2023-01-08T11:39:52;5.10;;;4.50;;
25331;SDS011;13284;52.748;13.452;2023-01-08T11:42:28;7.47;;;5.07;;
25331;SDS011;13284;52.748;13.452;2023-01-08T11:48:11;6.37;;;4.90;;
25331;SDS011;13284;52.748;13.452;2023-01-08T11:54:01;6.33;;;5.30;;
25331;SDS011;13284;52.748;13.452;2023-01-08T11:56:53;8.27;;;5.00;;
25331;SDS011;13284;52.748;13.452;2023-01-08T12:05:22;7.63;;;5.20;;
25331;SDS011;13284;52.748;13.452;2023-01-08T12:13:18;5.20;;;4.70;;
25331;SDS011;13284;52.748;13.452;2023-01-08T12:16:14;6.10;;;4.67;;
25331;SDS011;13284;52.748;13.452;2023-01-08T12:19:11;6.13;;;4.30;;
25331;SDS011;13284;52.748;13.452;2023-01-08T12:22:04;6.00;;;4.80;;
25331;SDS011;13284;52.748;13.452;2023-01-08T12:27:39;6.70;;;5.03;;
25331;SDS011;13284;52.748;13.452;2023-01-08T12:30:28;6.87;;;4.77;;
25331;SDS011;13284;52.748;13.452;2023-01-08T12:33:27;5.50;;;4.30;;
25331;SDS011;13284;52.748;13.452;2023-01-08T12:36:11;7.13;;;4.77;;
25331;SDS011;13284;52.748;13.452;2023-01-08T12:38:42;4.80;;;3.83;;
25331;SDS011;13284;52.748;13.452;2023-01-08T12:41:10;5.53;;;5.00;;
25331;SDS011;13284;52.748;13.452;2023-01-08T12:43:47;5.80;;;4.93;;
25331;SDS011;13284;52.748;13.452;2023-01-08T12:46:26;7.17;;;4.90;;
25331;SDS011;13284;52.748;13.452;2023-01-08T12:48:55;6.00;;;4.53;;
25331;SDS011;13284;52.748;13.452;2023-01-08T12:51:29;3.73;;;3.30;;
25331;SDS011;13284;52.748;13.452;2023-01-08T13:04:43;5.43;;;4.07;;
25331;SDS011;13284;52.748;13.452;2023-01-08T13:07:11;6.20;;;4.17;;
25331;SDS011;13284;52.748;13.452;2023-01-08T13:09:54;4.90;;;4.40;;
25331;SDS011;13284;52.748;13.452;2023-01-08T13:12:25;5.97;;;4.10;;
25331;SDS011;13284;52.748;13.452;2023-01-08T13:14:56;4.87;;;4.37;;
25331;SDS011;13284;52.748;13.452;2023-01-08T13:17:22;5.47;;;4.43;;
25331;SDS011;13284;52.748;13.452;2023-01-08T13:20:07;7.07;;;5.50;;
25331;SDS011;13284;52.748;13.452;2023-01-08T13:22:34;7.93;;;4.90;;
25331;SDS011;13284;52.748;13.452;2023-01-08T13:27:42;5.53;;;4.57;;
25331;SDS011;13284;52.748;13.452;2023-01-08T13:30:32;6.43;;;4.50;;
25331;SDS011;13284;52.748;13.452;2023-01-08T13:38:37;6.50;;;4.67;;
25331;SDS011;13284;52.748;13.452;2023-01-08T13:41:03;6.37;;;5.37;;
25331;SDS011;13284;52.748;13.452;2023-01-08T13:43:30;6.73;;;5.10;;
25331;SDS011;13284;52.748;13.452;2023-01-08T13:48:31;5.73;;;4.20;;
25331;SDS011;13284;52.748;13.452;2023-01-08T13:51:00;7.00;;;5.00;;
25331;SDS011;13284;52.748;13.452;2023-01-08T13:53:26;8.60;;;5.20;;
25331;SDS011;13284;52.748;13.452;2023-01-08T13:55:53;9.10;;;5.50;;
25331;SDS011;13284;52.748;13.452;2023-01-08T13:58:25;10.00;;;5.77;;
25331;SDS011;13284;52.748;13.452;2023-01-08T14:00:54;7.70;;;5.80;;
25331;SDS011;13284;52.748;13.452;2023-01-08T14:08:47;6.47;;;5.10;;
25331;SDS011;13284;52.748;13.452;2023-01-08T14:11:15;7.83;;;5.67;;
25331;SDS011;13284;52.748;13.452;2023-01-08T14:13:42;7.23;;;5.87;;
25331;SDS011;13284;52.748;13.452;2023-01-08T14:16:10;6.43;;;5.10;;
25331;SDS011;13284;52.748;13.452;2023-01-08T14:18:41;6.20;;;5.60;;
25331;SDS011;13284;52.748;13.452;2023-01-08T14:21:08;5.67;;;5.07;;
25331;SDS011;13284;52.748;13.452;2023-01-08T14:23:35;7.30;;;5.70;;
25331;SDS011;13284;52.748;13.452;2023-01-08T14:26:05;6.40;;;5.37;;
25331;SDS011;13284;52.748;13.452;2023-01-08T14:28:35;9.77;;;5.93;;
25331;SDS011;13284;52.748;13.452;2023-01-08T14:31:00;7.40;;;5.57;;
25331;SDS011;13284;52.748;13.452;2023-01-08T14:33:30;7.63;;;5.97;;
25331;SDS011;13284;52.748;13.452;2023-01-08T14:35:58;6.27;;;5.30;;
25331;SDS011;13284;52.748;13.452;2023-01-08T14:38:26;9.03;;;6.67;;
25331;SDS011;13284;52.748;13.452;2023-01-08T14:40:59;6.57;;;5.50;;
25331;SDS011;13284;52.748;13.452;2023-01-08T14:43:26;6.50;;;5.47;;
25331;SDS011;13284;52.748;13.452;2023-01-08T14:45:52;8.30;;;6.03;;
25331;SDS011;13284;52.748;13.452;2023-01-08T14:50:53;8.37;;;6.10;;
25331;SDS011;13284;52.748;13.452;2023-01-08T14:54:03;8.40;;;5.77;;
25331;SDS011;13284;52.748;13.452;2023-01-08T14:56:25;6.67;;;5.40;;
25331;SDS011;13284;52.748;13.452;2023-01-08T14:58:53;8.80;;;6.27;;
25331;SDS011;13284;52.748;13.452;2023-01-08T15:03:47;7.27;;;5.90;;
25331;SDS011;13284;52.748;13.452;2023-01-08T15:06:24;8.43;;;6.37;;
25331;SDS011;13284;52.748;13.452;2023-01-08T15:08:54;7.33;;;6.60;;
25331;SDS011;13284;52.748;13.452;2023-01-08T15:11:22;6.80;;;5.57;;
25331;SDS011;13284;52.748;13.452;2023-01-08T15:13:52;8.27;;;6.37;;
25331;SDS011;13284;52.748;13.452;2023-01-08T15:16:25;6.67;;;5.77;;
25331;SDS011;13284;52.748;13.452;2023-01-08T15:19:06;9.80;;;6.77;;
25331;SDS011;13284;52.748;13.452;2023-01-08T15:21:49;6.20;;;5.60;;
25331;SDS011;13284;52.748;13.452;2023-01-08T15:24:28;8.43;;;6.97;;
25331;SDS011;13284;52.748;13.452;2023-01-08T15:26:58;8.97;;;6.70;;
25331;SDS011;13284;52.748;13.452;2023-01-08T15:29:33;8.13;;;7.10;;
25331;SDS011;13284;52.748;13.452;2023-01-08T15:32:22;9.87;;;7.97;;
25331;SDS011;13284;52.748;13.452;2023-01-08T15:34:47;8.73;;;6.63;;
25331;SDS011;13284;52.748;13.452;2023-01-08T15:37:13;11.00;;;7.50;;
25331;SDS011;13284;52.748;13.452;2023-01-08T15:39:40;10.30;;;6.87;;
25331;SDS011;13284;52.748;13.452;2023-01-08T15:45:00;8.60;;;7.43;;
25331;SDS011;13284;52.748;13.452;2023-01-08T15:47:26;9.63;;;7.07;;
25331;SDS011;13284;52.748;13.452;2023-01-08T15:49:51;9.20;;;6.60;;
25331;SDS011;13284;52.748;13.452;2023-01-08T15:52:19;8.83;;;6.93;;
25331;SDS011;13284;52.748;13.452;2023-01-08T15:54:47;9.67;;;7.17;;
25331;SDS011;13284;52.748;13.452;2023-01-08T15:57:13;7.93;;;5.87;;
25331;SDS011;13284;52.748;13.452;2023-01-08T15:59:38;10.37;;;6.60;;
25331;SDS011;13284;52.748;13.452;2023-01-08T16:02:04;7.77;;;6.60;;